createdAt,value
2022-09-20T00:00:35.389Z,10.30
2022-09-20T00:01:35.448Z,7.80
2022-09-20T00:02:35.376Z,8.90
2022-09-20T00:03:35.389Z,8.10
2022-09-20T00:04:35.484Z,7.00
2022-09-20T00:05:35.378Z,7.30
2022-09-20T00:06:35.349Z,8.70
2022-09-20T00:07:36.410Z,10.30
2022-09-20T00:08:35.359Z,8.80
2022-09-20T00:09:35.352Z,16.30
2022-09-20T00:10:35.313Z,9.20
2022-09-20T00:11:35.320Z,8.30
2022-09-20T00:12:35.332Z,8.70
2022-09-20T00:13:35.333Z,11.40
2022-09-20T00:14:35.283Z,10.40
2022-09-20T00:15:35.324Z,8.20
2022-09-20T00:16:35.369Z,8.60
2022-09-20T00:17:35.310Z,11.30
2022-09-20T00:18:35.243Z,10.10
2022-09-20T00:19:35.283Z,10.50
2022-09-20T00:20:35.273Z,12.40
2022-09-20T00:21:35.267Z,12.60
2022-09-20T00:22:35.234Z,9.90
2022-09-20T00:23:35.207Z,10.40
2022-09-20T00:24:35.254Z,10.10
2022-09-20T00:25:35.191Z,11.60
2022-09-20T00:26:35.197Z,10.60
2022-09-20T00:27:35.223Z,11.70
2022-09-20T00:28:35.165Z,10.10
2022-09-20T00:29:35.214Z,12.20
2022-09-20T00:30:35.158Z,12.30
2022-09-20T00:31:35.230Z,8.30
2022-09-20T00:32:35.153Z,7.20
2022-09-20T00:33:35.142Z,14.60
2022-09-20T00:34:35.175Z,10.40
2022-09-20T00:35:35.155Z,10.80
2022-09-20T00:36:35.135Z,12.70
2022-09-20T00:37:35.121Z,12.00
2022-09-20T00:38:35.133Z,11.30
2022-09-20T00:39:35.174Z,13.20
2022-09-20T00:40:35.271Z,11.90
2022-09-20T00:41:35.105Z,11.80
2022-09-20T00:42:35.093Z,12.70
2022-09-20T00:43:35.058Z,9.60
2022-09-20T00:44:35.068Z,9.10
2022-09-20T00:45:35.105Z,11.30
2022-09-20T00:46:35.070Z,10.60
2022-09-20T00:47:35.046Z,11.60
2022-09-20T00:48:35.071Z,12.30
2022-09-20T00:49:35.043Z,10.90
2022-09-20T00:50:35.027Z,12.00
2022-09-20T00:51:35.045Z,14.70
2022-09-20T00:52:35.003Z,14.40
2022-09-20T00:53:35.026Z,14.50
2022-09-20T00:54:34.985Z,16.30
2022-09-20T00:55:34.969Z,14.00
2022-09-20T00:56:34.988Z,14.00
2022-09-20T00:57:34.980Z,14.30
2022-09-20T00:58:34.992Z,16.30
2022-09-20T00:59:34.929Z,17.00
2022-09-20T01:00:34.997Z,16.20
2022-09-20T01:01:35.052Z,17.80
2022-09-20T01:02:34.943Z,17.90
2022-09-20T01:03:35.930Z,13.40
2022-09-20T01:04:34.926Z,12.00
2022-09-20T01:05:34.878Z,12.90
2022-09-20T01:06:34.903Z,11.10
2022-09-20T01:07:34.872Z,17.00
2022-09-20T01:08:34.849Z,14.90
2022-09-20T01:09:34.897Z,15.90
2022-09-20T01:10:34.881Z,15.90
2022-09-20T01:11:34.849Z,10.70
2022-09-20T01:12:34.872Z,12.20
2022-09-20T01:13:34.832Z,12.90
2022-09-20T01:14:34.807Z,14.90
2022-09-20T01:15:34.843Z,17.50
2022-09-20T01:16:34.937Z,9.60
2022-09-20T01:17:34.790Z,12.20
2022-09-20T01:18:34.820Z,12.40
2022-09-20T01:19:34.820Z,13.20
2022-09-20T01:20:34.816Z,12.90
2022-09-20T01:21:34.763Z,13.40
2022-09-20T01:22:34.758Z,11.80
2022-09-20T01:23:34.759Z,9.70
2022-09-20T01:24:34.764Z,12.30
2022-09-20T01:25:35.728Z,11.00
2022-09-20T01:26:34.769Z,13.00
2022-09-20T01:27:34.772Z,11.80
2022-09-20T01:28:34.720Z,13.10
2022-09-20T01:29:35.457Z,10.90
2022-09-20T01:30:34.681Z,14.10
2022-09-20T01:31:34.730Z,12.00
2022-09-20T01:32:34.683Z,12.60
2022-09-20T01:33:34.750Z,10.40
2022-09-20T01:34:34.657Z,13.50
2022-09-20T01:35:34.646Z,13.70
2022-09-20T01:36:34.678Z,10.20
2022-09-20T01:37:34.635Z,15.60
2022-09-20T01:38:34.622Z,13.20
2022-09-20T01:39:34.613Z,12.50
2022-09-20T01:40:34.691Z,14.80
2022-09-20T01:41:34.640Z,12.40
2022-09-20T01:42:34.642Z,12.70
2022-09-20T01:43:34.609Z,10.90
2022-09-20T01:44:34.589Z,12.60
2022-09-20T02:02:28.603Z,10.30
2022-09-20T02:03:28.499Z,12.00
2022-09-20T02:04:29.664Z,9.40
2022-09-20T02:05:31.208Z,12.00
2022-09-20T02:06:29.727Z,10.40
2022-09-20T02:07:29.696Z,12.30
2022-09-20T02:08:32.264Z,15.00
2022-09-20T02:09:29.642Z,11.60
2022-09-20T02:10:29.620Z,11.50
2022-09-20T02:11:29.690Z,11.00
2022-09-20T02:12:33.501Z,12.40
2022-09-20T02:13:30.657Z,12.10
2022-09-20T02:14:32.349Z,11.50
2022-09-20T02:15:29.693Z,9.80
2022-09-20T02:16:29.724Z,10.40
2022-09-20T02:17:29.619Z,11.20
2022-09-20T02:18:35.565Z,9.00
2022-09-20T02:20:03.114Z,8.50
2022-09-20T02:20:29.471Z,11.60
2022-09-20T02:21:29.461Z,9.60
2022-09-20T02:22:29.475Z,11.50
2022-09-20T02:23:29.475Z,10.70
2022-09-20T02:24:29.479Z,9.10
2022-09-20T02:25:29.435Z,10.20
2022-09-20T02:26:29.442Z,12.80
2022-09-20T02:27:29.447Z,9.90
2022-09-20T02:28:29.435Z,8.50
2022-09-20T02:29:29.428Z,12.70
2022-09-20T02:30:29.438Z,13.30
2022-09-20T02:31:29.444Z,12.00
2022-09-20T02:32:29.423Z,9.80
2022-09-20T02:33:29.388Z,10.00
2022-09-20T02:34:30.379Z,11.20
2022-09-20T02:35:29.415Z,14.80
2022-09-20T02:36:29.392Z,15.20
2022-09-20T02:37:29.359Z,11.40
2022-09-20T02:38:29.393Z,13.00
2022-09-20T02:39:29.344Z,13.00
2022-09-20T02:40:29.370Z,13.60
2022-09-20T02:41:29.356Z,13.70
2022-09-20T02:42:29.316Z,9.90
2022-09-20T02:43:29.330Z,10.50
2022-09-20T02:44:29.294Z,12.00
2022-09-20T02:45:29.362Z,16.60
2022-09-20T02:46:29.315Z,14.10
2022-09-20T02:47:29.315Z,12.40
2022-09-20T02:48:29.298Z,9.40
2022-09-20T02:49:29.293Z,15.90
2022-09-20T02:50:29.291Z,10.10
2022-09-20T02:51:29.275Z,12.30
2022-09-20T02:52:29.265Z,10.60
2022-09-20T02:53:29.227Z,10.80
2022-09-20T02:54:29.247Z,12.80
2022-09-20T02:55:29.224Z,9.90
2022-09-20T02:56:29.235Z,12.80
2022-09-20T02:57:29.240Z,12.80
2022-09-20T02:58:29.217Z,14.20
2022-09-20T02:59:29.186Z,10.80
2022-09-20T03:00:29.183Z,16.70
2022-09-20T03:01:29.280Z,12.80
2022-09-20T03:02:30.245Z,15.00
2022-09-20T03:03:29.707Z,19.10
2022-09-20T03:04:29.155Z,14.50
2022-09-20T03:05:29.144Z,13.70
2022-09-20T03:06:29.129Z,17.70
2022-09-20T03:07:29.113Z,18.70
2022-09-20T03:08:29.238Z,14.30
2022-09-20T03:09:29.145Z,19.90
2022-09-20T03:10:29.113Z,14.10
2022-09-20T03:11:29.757Z,15.70
2022-09-20T03:12:29.148Z,13.80
2022-09-20T03:13:30.118Z,12.60
2022-09-20T03:14:29.137Z,13.90
2022-09-20T03:15:29.159Z,21.80
2022-09-20T03:16:29.232Z,14.70
2022-09-20T03:17:29.094Z,16.80
2022-09-20T03:18:29.144Z,16.90
2022-09-20T03:19:29.167Z,17.20
2022-09-20T03:20:29.080Z,19.30
2022-09-20T03:21:29.084Z,14.70
2022-09-20T03:22:29.088Z,13.60
2022-09-20T03:23:29.108Z,12.30
2022-09-20T03:24:29.059Z,15.10
2022-09-20T03:25:29.032Z,14.60
2022-09-20T03:26:29.010Z,18.10
2022-09-20T03:27:29.033Z,15.90
2022-09-20T03:28:29.103Z,13.30
2022-09-20T03:29:29.006Z,12.60
2022-09-20T03:30:28.979Z,15.60
2022-09-20T03:31:29.069Z,15.40
2022-09-20T03:32:28.990Z,17.00
2022-09-20T03:33:28.950Z,14.90
2022-09-20T03:34:28.984Z,16.20
2022-09-20T03:35:28.955Z,19.10
2022-09-20T03:36:28.922Z,15.20
2022-09-20T03:37:28.980Z,18.50
2022-09-20T03:38:28.942Z,17.70
2022-09-20T03:39:28.919Z,14.50
2022-09-20T03:40:28.984Z,17.20
2022-09-20T03:41:28.909Z,15.30
2022-09-20T03:42:28.923Z,13.10
2022-09-20T03:43:28.915Z,14.30
2022-09-20T03:44:28.888Z,21.40
2022-09-20T03:45:29.832Z,16.20
2022-09-20T03:46:29.554Z,15.20
2022-09-20T04:02:29.326Z,25.20
2022-09-20T04:03:29.127Z,16.20
2022-09-20T04:04:29.106Z,23.90
2022-09-20T04:05:30.242Z,36.10
2022-09-20T04:06:30.222Z,28.90
2022-09-20T04:07:30.251Z,20.50
2022-09-20T04:08:30.212Z,24.80
2022-09-20T04:09:30.263Z,20.40
2022-09-20T04:10:30.223Z,17.50
2022-09-20T04:11:30.203Z,18.20
2022-09-20T04:12:30.190Z,17.00
2022-09-20T04:13:30.168Z,21.60
2022-09-20T04:14:30.225Z,33.20
2022-09-20T04:15:30.156Z,66.70
2022-09-20T04:16:30.196Z,146.20
2022-09-20T04:17:30.194Z,93.00
2022-09-20T04:18:31.848Z,89.40
2022-09-20T04:19:32.995Z,54.10
2022-09-20T04:20:31.140Z,90.50
2022-09-20T04:21:30.204Z,64.10
2022-09-20T04:22:30.137Z,52.90
2022-09-20T04:23:30.128Z,41.60
2022-09-20T04:24:30.138Z,98.60
2022-09-20T04:25:30.900Z,33.50
2022-09-20T04:26:30.093Z,41.50
2022-09-20T04:27:30.105Z,67.70
2022-09-20T04:28:30.093Z,62.40
2022-09-20T04:29:30.063Z,87.10
2022-09-20T04:30:30.045Z,78.40
2022-09-20T04:31:30.172Z,61.90
2022-09-20T04:32:30.061Z,79.40
2022-09-20T04:33:30.076Z,53.30
2022-09-20T04:34:30.014Z,44.50
2022-09-20T04:35:30.089Z,36.50
2022-09-20T04:36:30.113Z,22.10
2022-09-20T04:37:30.011Z,19.20
2022-09-20T04:38:30.067Z,21.30
2022-09-20T04:39:29.966Z,18.30
2022-09-20T04:40:30.047Z,17.50
2022-09-20T04:41:31.981Z,15.70
2022-09-20T04:42:30.013Z,14.00
2022-09-20T04:43:30.101Z,16.50
2022-09-20T04:44:29.991Z,13.70
2022-09-20T04:45:30.012Z,18.10
2022-09-20T04:46:29.966Z,19.10
2022-09-20T04:47:30.043Z,15.50
2022-09-20T04:48:30.020Z,16.40
2022-09-20T04:49:29.979Z,20.30
2022-09-20T04:50:29.963Z,14.10
2022-09-20T04:51:29.937Z,14.30
2022-09-20T04:52:29.896Z,14.20
2022-09-20T04:53:29.945Z,17.90
2022-09-20T04:54:29.950Z,20.60
2022-09-20T04:55:31.199Z,20.20
2022-09-20T04:56:29.987Z,20.20
2022-09-20T04:57:29.908Z,11.90
2022-09-20T04:58:29.858Z,19.60
2022-09-20T04:59:29.925Z,15.20
2022-09-20T05:00:29.852Z,13.30
2022-09-20T05:01:32.414Z,18.10
2022-09-20T05:02:30.901Z,15.60
2022-09-20T05:03:29.862Z,17.20
2022-09-20T05:04:29.811Z,16.30
2022-09-20T05:05:29.867Z,14.10
2022-09-20T05:06:29.834Z,14.40
2022-09-20T05:07:29.777Z,13.10
2022-09-20T05:08:29.782Z,18.00
2022-09-20T05:09:29.770Z,11.40
2022-09-20T05:10:29.848Z,14.00
2022-09-20T05:11:29.806Z,17.70
2022-09-20T05:12:29.870Z,20.10
2022-09-20T05:13:29.765Z,13.00
2022-09-20T05:14:32.677Z,21.70
2022-09-20T05:15:29.766Z,19.40
2022-09-20T05:16:29.793Z,17.70
2022-09-20T05:17:29.736Z,17.20
2022-09-20T05:18:29.714Z,15.20
2022-09-20T05:19:29.729Z,20.60
2022-09-20T05:20:29.709Z,21.80
2022-09-20T05:21:29.745Z,13.60
2022-09-20T05:22:30.407Z,16.70
2022-09-20T05:23:29.690Z,18.40
2022-09-20T05:24:29.690Z,14.70
2022-09-20T05:25:29.671Z,20.90
2022-09-20T05:26:29.653Z,16.10
2022-09-20T05:27:29.684Z,15.10
2022-09-20T05:28:29.660Z,13.60
2022-09-20T05:29:29.669Z,17.80
2022-09-20T05:30:29.634Z,15.10
2022-09-20T05:31:29.671Z,17.00
2022-09-20T05:32:29.616Z,15.50
2022-09-20T05:33:29.600Z,20.00
2022-09-20T05:34:29.586Z,16.90
2022-09-20T05:35:29.628Z,17.80
2022-09-20T05:36:34.256Z,25.10
2022-09-20T05:37:31.580Z,14.90
2022-09-20T05:39:30.628Z,16.40
2022-09-20T05:40:29.660Z,14.80
2022-09-20T05:41:29.559Z,18.30
2022-09-20T05:42:29.524Z,18.00
2022-09-20T05:43:29.488Z,16.10
2022-09-20T05:44:29.483Z,15.20
2022-09-20T05:45:29.526Z,18.00
2022-09-20T05:46:29.470Z,17.40
2022-09-20T05:47:29.479Z,13.50
2022-09-20T05:48:29.459Z,21.80
2022-09-20T05:49:29.436Z,15.80
2022-09-20T05:50:29.429Z,18.30
2022-09-20T05:51:29.481Z,16.40
2022-09-20T05:52:29.416Z,16.30
2022-09-20T05:53:29.414Z,14.60
2022-09-20T05:54:29.413Z,17.00
2022-09-20T05:55:29.390Z,20.00
2022-09-20T05:56:29.408Z,14.80
2022-09-20T05:57:29.411Z,15.50
2022-09-20T05:58:29.394Z,19.30
2022-09-20T05:59:29.358Z,15.90
2022-09-20T06:00:29.352Z,16.50
2022-09-20T06:01:29.415Z,17.50
2022-09-20T06:02:29.355Z,23.10
2022-09-20T06:03:29.350Z,16.00
2022-09-20T06:04:29.323Z,17.20
2022-09-20T06:05:29.337Z,14.00
2022-09-20T06:06:32.574Z,15.00
2022-09-20T06:07:30.315Z,13.10
2022-09-20T06:08:29.341Z,18.30
2022-09-20T06:09:29.295Z,15.00
2022-09-20T06:10:29.332Z,10.80
2022-09-20T06:11:29.265Z,12.80
2022-09-20T06:12:29.276Z,14.70
2022-09-20T06:13:29.276Z,18.80
2022-09-20T06:14:29.250Z,17.50
2022-09-20T06:15:29.260Z,16.60
2022-09-20T06:16:29.283Z,13.90
2022-09-20T06:17:29.237Z,15.80
2022-09-20T06:18:29.232Z,17.30
2022-09-20T06:19:29.233Z,16.70
2022-09-20T06:20:29.248Z,13.60
2022-09-20T06:21:29.190Z,15.50
2022-09-20T06:22:29.194Z,15.80
2022-09-20T06:23:29.186Z,13.90
2022-09-20T06:24:29.193Z,14.30
2022-09-20T06:25:29.180Z,13.50
2022-09-20T06:26:29.170Z,10.20
2022-09-20T06:27:29.162Z,12.70
2022-09-20T06:28:29.157Z,19.10
2022-09-20T06:29:29.132Z,13.60
2022-09-20T06:30:29.245Z,15.20
2022-09-20T06:31:29.142Z,14.30
2022-09-20T06:32:29.119Z,13.20
2022-09-20T06:33:29.130Z,15.00
2022-09-20T06:34:29.101Z,17.00
2022-09-20T06:35:29.086Z,13.00
2022-09-20T06:36:29.134Z,12.00
2022-09-20T06:37:29.163Z,15.90
2022-09-20T06:38:29.143Z,13.40
2022-09-20T06:39:29.116Z,13.60
2022-09-20T06:40:29.139Z,11.50
2022-09-20T06:41:29.116Z,12.90
2022-09-20T06:42:29.078Z,16.50
2022-09-20T06:43:29.091Z,16.10
2022-09-20T06:44:29.120Z,13.20
2022-09-20T06:45:29.059Z,16.40
2022-09-20T06:46:29.062Z,14.00
2022-09-20T06:47:29.095Z,17.40
2022-09-20T06:48:29.006Z,18.70
2022-09-20T06:49:29.013Z,14.80
2022-09-20T06:50:29.017Z,16.60
2022-09-20T06:51:28.986Z,12.40
2022-09-20T06:52:29.006Z,16.10
2022-09-20T06:53:28.991Z,13.80
2022-09-20T06:54:29.004Z,11.30
2022-09-20T06:55:29.437Z,14.80
2022-09-20T06:56:29.953Z,15.90
2022-09-20T06:57:28.994Z,15.20
2022-09-20T06:58:29.006Z,16.40
2022-09-20T06:59:28.951Z,12.80
2022-09-20T07:00:28.940Z,12.30
2022-09-20T07:01:30.514Z,17.30
2022-09-20T07:02:30.025Z,15.90
2022-09-20T07:03:28.914Z,16.80
2022-09-20T07:04:28.965Z,16.10
2022-09-20T07:05:28.865Z,21.60
2022-09-20T07:06:28.890Z,15.40
2022-09-20T07:07:28.847Z,16.90
2022-09-20T07:08:28.911Z,19.20
2022-09-20T07:09:28.896Z,21.30
2022-09-20T07:10:28.844Z,20.60
2022-09-20T07:11:28.876Z,15.60
2022-09-20T07:12:29.815Z,11.70
2022-09-20T07:13:28.927Z,16.60
2022-09-20T07:14:28.872Z,11.70
2022-09-20T07:15:28.846Z,17.80
2022-09-20T07:16:28.855Z,18.70
2022-09-20T07:17:28.820Z,14.50
2022-09-20T07:18:28.783Z,16.70
2022-09-20T07:19:28.810Z,17.70
2022-09-20T07:20:28.830Z,21.80
2022-09-20T07:21:28.790Z,17.80
2022-09-20T07:22:28.756Z,20.40
2022-09-20T07:23:28.752Z,37.60
2022-09-20T07:24:28.771Z,23.20
2022-09-20T07:25:28.756Z,12.00
2022-09-20T07:26:28.795Z,19.70
2022-09-20T07:27:29.482Z,13.90
2022-09-20T07:28:29.723Z,17.10
2022-09-20T07:29:28.714Z,13.90
2022-09-20T07:30:28.690Z,17.10
2022-09-20T07:31:28.788Z,13.40
2022-09-20T07:32:28.700Z,15.30
2022-09-20T07:33:28.678Z,23.10
2022-09-20T07:34:28.680Z,14.50
2022-09-20T07:35:28.671Z,19.80
2022-09-20T07:36:28.670Z,16.30
2022-09-20T07:37:28.715Z,14.60
2022-09-20T07:38:28.669Z,15.20
2022-09-20T07:39:28.666Z,20.40
2022-09-20T07:40:28.735Z,21.40
2022-09-20T07:41:28.632Z,17.60
2022-09-20T07:42:28.667Z,15.40
2022-09-20T07:43:28.611Z,17.50
2022-09-20T07:44:28.665Z,20.40
2022-09-20T07:45:28.630Z,15.50
2022-09-20T07:46:28.562Z,19.30
2022-09-20T07:47:28.556Z,15.20
2022-09-20T07:48:28.582Z,15.30
2022-09-20T07:49:28.602Z,13.40
2022-09-20T07:50:28.543Z,16.50
2022-09-20T07:51:28.584Z,10.90
2022-09-20T07:52:28.539Z,12.00
2022-09-20T07:53:28.567Z,15.00
2022-09-20T07:54:28.543Z,17.80
2022-09-20T07:55:28.520Z,15.60
2022-09-20T07:56:28.482Z,15.70
2022-09-20T07:57:28.503Z,16.80
2022-09-20T07:58:28.510Z,15.40
2022-09-20T07:59:28.512Z,14.90
2022-09-20T08:00:28.509Z,14.50
2022-09-20T08:01:28.486Z,18.40
2022-09-20T08:02:29.505Z,17.10
2022-09-20T08:03:28.462Z,13.10
2022-09-20T08:04:28.462Z,11.60
2022-09-20T08:05:28.475Z,15.50
2022-09-20T08:06:28.440Z,15.60
2022-09-20T08:07:28.424Z,19.90
2022-09-20T08:08:28.480Z,13.90
2022-09-20T08:09:28.472Z,15.60
2022-09-20T08:10:28.404Z,15.40
2022-09-20T08:11:28.429Z,18.30
2022-09-20T08:14:30.414Z,15.90
2022-09-20T08:15:28.373Z,15.90
2022-09-20T08:16:28.407Z,19.60
2022-09-20T08:17:28.332Z,12.90
2022-09-20T08:18:28.315Z,12.90
2022-09-20T08:19:28.332Z,15.80
2022-09-20T08:21:00.750Z,13.50
2022-09-20T08:22:02.455Z,14.50
2022-09-20T08:23:22.461Z,15.00
2022-09-20T08:24:02.343Z,17.00
2022-09-20T08:24:28.360Z,13.60
2022-09-20T08:25:28.344Z,12.20
2022-09-20T08:26:28.260Z,14.10
2022-09-20T08:27:28.308Z,13.00
2022-09-20T08:28:28.849Z,16.20
2022-09-20T08:29:28.380Z,11.80
2022-09-20T08:30:28.486Z,15.70
2022-09-20T08:31:28.351Z,13.10
2022-09-20T08:32:28.267Z,13.20
2022-09-20T08:33:28.301Z,15.00
2022-09-20T08:34:28.341Z,16.00
2022-09-20T08:35:28.293Z,9.90
2022-09-20T08:36:31.082Z,13.50
2022-09-20T08:37:30.256Z,12.90
2022-09-20T08:40:30.344Z,9.60
2022-09-20T08:41:28.199Z,12.50
2022-09-20T08:42:33.004Z,10.80
2022-09-20T08:43:29.187Z,11.90
2022-09-20T08:44:28.235Z,12.20
2022-09-20T08:45:36.230Z,8.80
2022-09-20T08:46:30.761Z,11.10
2022-09-20T08:47:28.277Z,9.60
2022-09-20T08:48:30.114Z,10.30
2022-09-20T08:49:28.119Z,11.70
2022-09-20T08:50:28.129Z,15.10
2022-09-20T08:51:29.067Z,10.70
2022-09-20T08:52:36.291Z,13.00
2022-09-20T08:53:29.063Z,10.60
2022-09-20T08:54:32.311Z,12.20
2022-09-20T08:55:29.060Z,11.60
2022-09-20T08:56:28.121Z,10.10
2022-09-20T08:57:28.084Z,13.40
2022-09-20T08:58:28.017Z,10.90
2022-09-20T08:59:28.079Z,12.80
2022-09-20T09:00:28.165Z,11.70
2022-09-20T09:01:28.101Z,11.30
2022-09-20T09:02:30.729Z,15.50
2022-09-20T09:03:28.060Z,11.80
2022-09-20T09:04:28.013Z,13.30
2022-09-20T09:05:28.034Z,9.30
2022-09-20T09:06:27.954Z,10.80
2022-09-20T09:07:28.151Z,10.60
2022-09-20T09:08:28.580Z,11.30
2022-09-20T09:09:27.984Z,10.50
2022-09-20T09:10:28.070Z,9.80
2022-09-20T09:11:27.927Z,10.60
2022-09-20T09:12:28.027Z,13.40
2022-09-20T09:13:27.905Z,14.40
2022-09-20T09:14:28.630Z,12.80
2022-09-20T09:15:27.937Z,12.80
2022-09-20T09:16:34.736Z,9.30
2022-09-20T09:17:29.898Z,11.10
2022-09-20T09:18:31.810Z,8.90
2022-09-20T09:19:36.035Z,11.80
2022-09-20T09:20:29.877Z,9.40
2022-09-20T09:21:27.890Z,9.20
2022-09-20T09:22:27.854Z,11.20
2022-09-20T09:23:27.864Z,10.10
2022-09-20T09:24:27.861Z,11.90
2022-09-20T09:25:27.871Z,12.10
2022-09-20T09:26:27.990Z,10.90
2022-09-20T09:27:27.824Z,10.60
2022-09-20T09:28:27.782Z,9.30
2022-09-20T09:29:31.682Z,13.30
2022-09-20T09:30:29.499Z,13.40
2022-09-20T09:31:27.820Z,10.70
2022-09-20T09:32:28.453Z,13.00
2022-09-20T09:33:28.906Z,10.60
2022-09-20T09:34:27.774Z,7.90
2022-09-20T09:35:27.759Z,10.00
2022-09-20T09:36:28.868Z,11.60
2022-09-20T09:37:28.792Z,15.00
2022-09-20T09:38:29.607Z,7.30
2022-09-20T09:39:27.759Z,16.70
2022-09-20T09:40:27.876Z,11.40
2022-09-20T09:41:27.734Z,12.80
2022-09-20T09:42:27.698Z,14.50
2022-09-20T09:43:27.703Z,10.80
2022-09-20T09:44:28.666Z,14.00
2022-09-20T09:45:30.672Z,13.40
2022-09-20T09:46:27.710Z,11.80
2022-09-20T09:47:27.679Z,9.70
2022-09-20T09:48:27.727Z,8.40
2022-09-20T09:49:27.654Z,10.50
2022-09-20T09:50:27.632Z,8.10
2022-09-20T09:51:27.636Z,11.00
2022-09-20T09:52:27.689Z,11.90
2022-09-20T09:53:27.637Z,9.20
2022-09-20T09:54:27.597Z,12.80
2022-09-20T09:55:27.581Z,9.70
2022-09-20T09:56:27.690Z,8.90
2022-09-20T09:57:30.104Z,11.40
2022-09-20T09:58:27.603Z,11.60
2022-09-20T09:59:27.603Z,8.10
2022-09-20T10:00:27.604Z,13.20
2022-09-20T10:01:32.515Z,10.80
2022-09-20T10:02:29.613Z,10.20
2022-09-20T10:03:27.550Z,10.40
2022-09-20T10:04:27.668Z,7.90
2022-09-20T10:05:27.494Z,9.90
2022-09-20T10:06:27.535Z,16.70
2022-09-20T10:07:27.542Z,11.80
2022-09-20T10:08:27.495Z,11.10
2022-09-20T10:09:27.518Z,9.30
2022-09-20T10:10:27.474Z,9.50
2022-09-20T10:11:27.609Z,14.30
2022-09-20T10:12:27.490Z,13.90
2022-09-20T10:13:27.467Z,11.00
2022-09-20T10:14:27.497Z,7.90
2022-09-20T10:15:28.141Z,9.60
2022-09-20T10:16:27.475Z,8.40
2022-09-20T10:17:27.447Z,11.30
2022-09-20T10:18:27.428Z,8.60
2022-09-20T10:19:27.442Z,12.10
2022-09-20T10:20:27.426Z,10.90
2022-09-20T10:21:27.387Z,10.20
2022-09-20T10:22:27.397Z,11.80
2022-09-20T10:23:51.340Z,14.60
2022-09-20T10:24:29.377Z,11.50
2022-09-20T10:25:27.392Z,8.60
2022-09-20T10:26:27.374Z,8.70
2022-09-20T10:27:27.393Z,8.70
2022-09-20T10:28:27.352Z,7.80
2022-09-20T10:29:27.354Z,9.80
2022-09-20T10:30:27.323Z,7.90
2022-09-20T10:31:27.363Z,10.40
2022-09-20T10:32:27.338Z,9.40
2022-09-20T10:33:27.972Z,7.10
2022-09-20T10:34:27.336Z,9.10
2022-09-20T10:35:27.308Z,7.90
2022-09-20T10:36:28.373Z,10.50
2022-09-20T10:37:28.003Z,25.10
2022-09-20T10:38:27.254Z,50.60
2022-09-20T10:39:29.968Z,61.00
2022-09-20T10:40:27.350Z,19.70
2022-09-20T10:41:28.065Z,18.00
2022-09-20T10:42:27.237Z,90.80
2022-09-20T10:43:30.107Z,33.10
2022-09-20T10:44:27.292Z,22.40
2022-09-20T10:45:59.631Z,8.40
2022-09-20T10:46:32.717Z,10.60
2022-09-20T10:47:28.349Z,6.50
2022-09-20T10:48:27.172Z,9.20
2022-09-20T10:49:30.590Z,7.10
2022-09-20T10:50:27.997Z,9.00
2022-09-20T10:51:29.980Z,8.80
2022-09-20T10:52:28.010Z,9.00
2022-09-20T10:53:27.208Z,5.40
2022-09-20T10:54:27.232Z,8.00
2022-09-20T10:55:27.108Z,5.40
2022-09-20T10:56:27.210Z,8.10
2022-09-20T10:57:27.167Z,4.80
2022-09-20T11:00:13.168Z,8.90
2022-09-20T11:00:16.926Z,17.40
2022-09-20T11:01:15.228Z,14.40
2022-09-20T11:02:50.200Z,18.80
2022-09-20T13:51:51.993Z,6.40
2022-09-20T13:52:45.032Z,5.50
2022-09-20T13:53:45.052Z,5.00
2022-09-20T13:54:48.433Z,4.10
2022-09-20T13:55:48.060Z,2.40
2022-09-20T13:56:45.133Z,3.50
2022-09-20T13:57:47.686Z,2.70
2022-09-20T13:58:45.044Z,4.30
2022-09-20T13:59:45.043Z,3.30
2022-09-20T14:00:45.840Z,5.30
2022-09-20T14:01:45.098Z,5.10
2022-09-20T14:02:45.092Z,4.50
2022-09-20T14:03:52.069Z,3.40
2022-09-20T14:04:45.110Z,4.50
2022-09-20T14:05:49.649Z,3.80
2022-09-20T14:06:45.199Z,3.80
2022-09-20T14:07:45.031Z,3.30
2022-09-20T14:08:44.988Z,4.10
2022-09-20T14:09:45.089Z,3.10
2022-09-20T14:10:45.932Z,3.20
2022-09-20T14:11:44.971Z,5.20
2022-09-20T14:12:44.926Z,5.10
2022-09-20T14:13:45.786Z,3.10
2022-09-20T14:14:47.582Z,4.10
2022-09-20T14:15:44.980Z,2.60
2022-09-20T14:16:45.948Z,4.70
2022-09-20T14:17:45.106Z,5.60
2022-09-20T14:18:47.527Z,2.60
2022-09-20T14:19:47.167Z,2.80
2022-09-20T14:21:19.036Z,3.00
2022-09-20T14:21:44.762Z,2.00
2022-09-20T14:22:44.767Z,4.70
2022-09-20T14:23:44.765Z,7.90
2022-09-20T14:24:44.816Z,8.60
2022-09-20T14:25:44.770Z,6.70
2022-09-20T14:26:44.740Z,7.90
2022-09-20T14:27:44.753Z,3.70
2022-09-20T14:28:44.775Z,4.20
2022-09-20T14:29:44.719Z,7.20
2022-09-20T14:30:44.712Z,9.70
2022-09-20T14:31:44.800Z,5.50
2022-09-20T14:32:44.709Z,5.90
2022-09-20T14:33:44.767Z,4.40
2022-09-20T14:34:45.686Z,4.30
2022-09-20T14:35:44.652Z,4.60
2022-09-20T14:36:44.649Z,3.90
2022-09-20T14:37:44.657Z,8.00
2022-09-20T14:38:44.670Z,6.00
2022-09-20T14:39:44.964Z,6.50
2022-09-20T14:40:45.657Z,8.90
2022-09-20T14:41:44.643Z,9.10
2022-09-20T14:42:44.689Z,10.60
2022-09-20T14:43:44.598Z,9.20
2022-09-20T14:44:44.637Z,7.40
2022-09-20T14:45:45.589Z,8.20
2022-09-20T14:46:44.638Z,6.40
2022-09-20T14:47:44.614Z,9.70
2022-09-20T14:48:44.609Z,11.90
2022-09-20T14:49:44.552Z,7.80
2022-09-20T14:50:44.651Z,7.90
2022-09-20T14:51:44.567Z,5.80
2022-09-20T14:52:44.530Z,7.80
2022-09-20T14:53:44.539Z,9.30
2022-09-20T14:54:44.545Z,6.70
2022-09-20T14:55:44.544Z,8.00
2022-09-20T14:56:45.208Z,6.70
2022-09-20T14:57:45.712Z,5.80
2022-09-20T14:58:45.939Z,4.80
2022-09-20T14:59:44.498Z,7.90
2022-09-20T15:00:44.533Z,6.90
2022-09-20T15:01:44.514Z,6.10
2022-09-20T15:02:48.506Z,8.80
2022-09-20T15:03:44.605Z,5.30
2022-09-20T15:04:44.525Z,6.40
2022-09-20T15:05:45.195Z,6.30
2022-09-20T15:06:44.461Z,4.10
2022-09-20T15:08:18.084Z,5.40
2022-09-20T15:08:46.684Z,6.50
2022-09-20T15:09:46.395Z,5.30
2022-09-20T15:10:45.385Z,4.80
2022-09-20T15:11:44.403Z,6.20
2022-09-20T15:12:44.433Z,3.70
2022-09-20T15:13:44.339Z,9.10
2022-09-20T15:14:44.358Z,17.30
2022-09-20T15:15:44.396Z,8.30
2022-09-20T15:16:44.408Z,5.90
2022-09-20T15:17:44.443Z,5.60
2022-09-20T15:18:44.346Z,4.60
2022-09-20T15:19:44.541Z,4.80
2022-09-20T15:20:44.309Z,4.70
2022-09-20T15:21:44.374Z,4.00
2022-09-20T15:22:44.362Z,4.70
2022-09-20T15:23:44.297Z,7.10
2022-09-20T15:24:44.291Z,4.40
2022-09-20T15:25:44.301Z,3.60
2022-09-20T15:26:44.299Z,6.80
2022-09-20T15:27:44.313Z,4.60
2022-09-20T15:28:44.301Z,4.90
2022-09-20T15:29:44.259Z,5.60
2022-09-20T15:30:44.283Z,4.70
2022-09-20T15:31:44.291Z,4.50
2022-09-20T15:32:44.226Z,2.70
2022-09-20T15:33:44.212Z,2.10
2022-09-20T15:34:44.249Z,5.40
2022-09-20T15:35:44.220Z,4.40
2022-09-20T15:36:44.223Z,5.10
2022-09-20T15:37:44.181Z,5.50
2022-09-20T15:38:44.209Z,5.20
2022-09-20T15:39:44.213Z,5.10
2022-09-20T15:40:44.197Z,4.70
2022-09-20T15:41:44.187Z,4.40
2022-09-20T15:42:44.188Z,4.10
2022-09-20T15:43:44.184Z,5.90
2022-09-20T15:44:44.209Z,4.60
2022-09-20T15:45:44.145Z,4.60
2022-09-20T15:46:45.139Z,7.20
2022-09-20T15:47:44.145Z,3.60
2022-09-20T15:48:44.155Z,8.30
2022-09-20T15:49:44.107Z,5.70
2022-09-20T15:50:44.152Z,7.40
2022-09-20T15:51:44.106Z,5.10
2022-09-20T15:52:44.066Z,8.80
2022-09-20T15:53:44.072Z,3.70
2022-09-20T15:54:44.087Z,6.80
2022-09-20T15:55:44.058Z,3.70
2022-09-20T15:56:44.123Z,2.70
2022-09-20T15:57:44.061Z,5.80
2022-09-20T15:58:45.488Z,5.20
2022-09-20T15:59:44.049Z,5.20
2022-09-20T16:00:44.072Z,5.70
2022-09-20T16:01:44.060Z,7.80
2022-09-20T16:02:43.984Z,11.20
2022-09-20T16:03:44.048Z,4.70
2022-09-20T16:04:44.016Z,4.20
2022-09-20T16:05:44.703Z,3.50
2022-09-20T16:06:43.988Z,6.40
2022-09-20T16:07:44.735Z,6.00
2022-09-20T16:08:43.959Z,4.70
2022-09-20T16:09:43.944Z,3.90
2022-09-20T16:10:44.037Z,6.30
2022-09-20T16:11:43.977Z,3.00
2022-09-20T16:12:43.966Z,4.90
2022-09-20T16:13:43.906Z,4.40
2022-09-20T16:14:43.889Z,3.30
2022-09-20T16:15:43.892Z,3.20
2022-09-20T16:16:43.983Z,3.40
2022-09-20T16:17:43.883Z,5.70
2022-09-20T16:18:43.858Z,6.30
2022-09-20T16:19:43.858Z,3.10
2022-09-20T16:20:43.887Z,3.20
2022-09-20T16:21:43.860Z,3.60
2022-09-20T16:22:43.850Z,5.10
2022-09-20T16:23:43.821Z,5.40
2022-09-20T16:24:43.811Z,8.40
2022-09-20T16:25:43.896Z,5.30
2022-09-20T16:26:43.829Z,9.80